Time;durP1;ratioP1;P1;durP2;ratioP2;P2;SDS_P1;SDS_P2;PMS_P1;PMS_P2;Temp;Humidity;BMP_temperature;BMP_pressure;BME280_temperature;BME280_humidity;BME280_pressure;Samples;Min_cycle;Max_cycle;Signal;HPM_P1;HPM_P2
2023/01/27 00:01:40;;;;;;;15.50;10.43;;;1.60;99.90;;;1.55;62.61;100654.56;4997767;28;20226;-70
2023/01/27 00:04:09;;;;;;;17.50;11.63;;;1.60;99.90;;;1.55;62.70;100651.19;4999083;28;20208;-68
2023/01/27 00:06:37;;;;;;;18.13;12.33;;;1.60;99.90;;;1.57;62.56;100647.84;5000721;28;20226;-69
2023/01/27 00:09:06;;;;;;;18.83;12.40;;;1.60;99.90;;;1.57;62.83;100647.00;4999981;28;20239;-69
2023/01/27 00:14:22;;;;;;;16.53;11.57;;;1.60;99.90;;;1.52;62.20;100658.69;5004105;28;20254;-69
2023/01/27 00:16:52;;;;;;;17.63;11.73;;;1.60;99.90;;;1.47;62.99;100653.41;5004332;28;20254;-68
2023/01/27 00:19:20;;;;;;;22.00;12.60;;;1.60;99.90;;;1.44;63.21;100655.88;5005659;28;20204;-68
2023/01/27 00:24:37;;;;;;;15.30;11.33;;;1.50;99.90;;;1.36;63.20;100653.06;5005595;28;20199;-69
2023/01/27 00:27:08;;;;;;;24.00;15.67;;;1.50;99.90;;;1.37;63.36;100659.88;5000083;28;20266;-70
2023/01/27 00:29:39;;;;;;;22.10;13.47;;;1.50;99.90;;;1.38;63.40;100650.56;5003974;28;20200;-69
2023/01/27 00:34:54;;;;;;;23.50;13.57;;;1.50;99.90;;;1.45;63.90;100662.69;4997130;28;20290;-70
2023/01/27 00:37:22;;;;;;;20.70;13.57;;;1.60;99.90;;;1.50;63.21;100663.69;5000600;28;20216;-69
2023/01/27 00:39:51;;;;;;;19.23;13.20;;;1.60;99.90;;;1.54;63.42;100662.97;5004075;28;20657;-70
2023/01/27 00:42:19;;;;;;;21.63;12.00;;;1.60;99.90;;;1.56;63.57;100665.59;4999118;28;20281;-69
2023/01/27 00:47:32;;;;;;;18.27;11.40;;;1.60;99.90;;;1.54;63.23;100662.13;4999690;28;20228;-70
2023/01/27 00:50:01;;;;;;;19.53;12.80;;;1.60;99.90;;;1.55;63.28;100661.34;4997645;28;20258;-70
2023/01/27 00:52:29;;;;;;;20.97;13.63;;;1.60;99.90;;;1.56;63.14;100670.69;5001932;28;20307;-69
2023/01/27 00:54:58;;;;;;;22.03;12.73;;;1.70;99.90;;;1.56;63.05;100663.91;5003780;28;20216;-70
2023/01/27 00:57:26;;;;;;;22.40;13.43;;;1.70;99.90;;;1.57;63.56;100667.31;5003441;28;20562;-68
2023/01/27 00:59:56;;;;;;;23.37;13.73;;;1.70;99.90;;;1.55;63.52;100664.75;5001597;28;20231;-69
2023/01/27 01:02:27;;;;;;;22.17;12.63;;;1.60;99.90;;;1.56;63.64;100670.69;5000517;28;20218;-70
2023/01/27 01:04:55;;;;;;;19.00;12.60;;;1.60;99.90;;;1.54;63.33;100657.03;5000145;28;20331;-68
2023/01/27 01:07:24;;;;;;;21.33;13.17;;;1.60;99.90;;;1.54;63.83;100667.19;5001036;28;20239;-67
2023/01/27 01:09:53;;;;;;;19.73;12.33;;;1.60;99.90;;;1.56;63.53;100660.50;5000741;28;20220;-68
2023/01/27 01:12:21;;;;;;;19.93;12.63;;;1.60;99.90;;;1.53;62.95;100661.25;5001450;28;20208;-70
2023/01/27 01:14:50;;;;;;;19.43;12.80;;;1.60;99.90;;;1.52;63.74;100662.09;5000487;28;20208;-70
2023/01/27 01:17:19;;;;;;;19.97;13.90;;;1.60;99.90;;;1.51;63.41;100662.00;5002687;28;20282;-67
2023/01/27 01:19:48;;;;;;;19.87;13.20;;;1.60;99.90;;;1.51;63.39;100662.00;5001749;28;20216;-70
2023/01/27 01:22:17;;;;;;;19.70;13.57;;;1.60;99.90;;;1.53;63.79;100668.88;5001544;28;20250;-69
2023/01/27 01:24:45;;;;;;;21.90;14.10;;;1.60;99.90;;;1.56;63.36;100675.75;5001630;28;20219;-69
2023/01/27 01:27:13;;;;;;;18.57;12.97;;;1.60;99.90;;;1.57;63.53;100672.41;5001172;28;20219;-70
2023/01/27 01:29:42;;;;;;;21.37;12.60;;;1.60;99.90;;;1.60;63.49;100663.22;5001972;28;20218;-69
2023/01/27 01:32:11;;;;;;;20.33;13.40;;;1.70;99.90;;;1.62;64.15;100666.69;5003244;28;20200;-69
2023/01/27 01:34:40;;;;;;;18.73;12.97;;;1.70;99.90;;;1.65;63.78;100659.13;5000434;28;20637;-69
2023/01/27 01:37:09;;;;;;;19.43;13.10;;;1.70;99.90;;;1.66;63.94;100660.03;4995211;28;20637;-69
2023/01/27 01:39:38;;;;;;;22.37;14.17;;;1.70;99.90;;;1.67;63.69;100664.28;5002818;28;20212;-67
2023/01/27 01:42:07;;;;;;;21.73;13.70;;;1.70;99.90;;;1.66;63.23;100663.44;4964196;28;20213;-69
2023/01/27 01:44:35;;;;;;;21.87;13.77;;;1.70;99.90;;;1.65;64.03;100660.81;4961838;28;20217;-67
2023/01/27 01:47:04;;;;;;;18.63;12.57;;;1.70;99.90;;;1.66;64.22;100667.66;4963659;28;20271;-68
2023/01/27 01:49:38;;;;;;;20.97;13.73;;;1.70;99.90;;;1.66;63.89;100667.66;4964793;28;20221;-69
2023/01/27 01:52:15;;;;;;;20.00;13.23;;;1.70;99.90;;;1.69;64.18;100667.72;4962444;28;20204;-70
2023/01/27 01:54:48;;;;;;;22.47;13.37;;;1.70;99.90;;;1.72;63.79;100672.06;4959431;28;20229;-68
2023/01/27 01:57:21;;;;;;;21.80;14.13;;;1.80;99.90;;;1.72;63.65;100665.28;4962430;28;20197;-71
2023/01/27 01:59:56;;;;;;;21.57;13.30;;;1.80;99.90;;;1.75;63.98;100667.09;4963073;28;20197;-69
2023/01/27 02:02:26;;;;;;;20.87;13.17;;;1.80;99.90;;;1.76;63.86;100664.59;4960940;28;20204;-69
2023/01/27 02:05:00;;;;;;;21.73;13.33;;;1.80;99.90;;;1.76;63.30;100667.13;4959679;28;20205;-70
2023/01/27 02:07:37;;;;;;;20.13;13.47;;;1.80;99.90;;;1.74;63.95;100661.16;4961914;28;20602;-68
2023/01/27 02:10:06;;;;;;;20.93;13.27;;;1.80;99.90;;;1.74;63.17;100661.16;4957447;28;20205;-69
2023/01/27 02:12:35;;;;;;;20.77;13.10;;;1.80;99.90;;;1.71;63.23;100655.97;4959485;28;20260;-68
2023/01/27 02:15:05;;;;;;;21.37;13.57;;;1.80;99.90;;;1.71;63.15;100663.56;4961065;28;20206;-67
2023/01/27 02:17:33;;;;;;;18.97;12.73;;;1.80;99.90;;;1.69;62.84;100660.09;4960897;28;20208;-68
2023/01/27 02:20:09;;;;;;;20.83;13.07;;;1.70;99.90;;;1.68;63.23;100658.38;4957887;28;20213;-69
2023/01/27 02:22:48;;;;;;;18.90;12.30;;;1.70;99.90;;;1.71;62.76;100657.63;4959839;28;20294;-69
2023/01/27 02:25:29;;;;;;;21.73;13.27;;;1.80;99.90;;;1.69;63.12;100662.66;4946882;28;20209;-69
2023/01/27 02:27:59;;;;;;;19.97;13.17;;;1.70;99.90;;;1.70;63.18;100664.41;4955649;28;20268;-69
2023/01/27 02:30:28;;;;;;;21.63;13.13;;;1.70;99.90;;;1.66;63.15;100668.50;4961124;28;20205;-70
2023/01/27 02:32:56;;;;;;;19.43;12.57;;;1.70;99.90;;;1.65;62.21;100665.91;4952455;28;20221;-69
2023/01/27 02:35:32;;;;;;;20.23;13.00;;;1.70;99.90;;;1.63;62.80;100667.53;4960432;28;20213;-69
2023/01/27 02:38:01;;;;;;;18.83;11.60;;;1.70;99.90;;;1.61;62.46;100669.16;4961584;28;20209;-69
2023/01/27 02:40:32;;;;;;;22.87;12.13;;;1.70;99.90;;;1.59;62.95;100665.72;4968121;28;20255;-68
2023/01/27 02:43:05;;;;;;;19.37;12.23;;;1.70;99.90;;;1.57;62.31;100664.78;4995247;28;20208;-68
2023/01/27 02:45:33;;;;;;;18.83;12.03;;;1.60;99.90;;;1.55;62.29;100666.41;4996408;28;20196;-68
2023/01/27 02:48:02;;;;;;;19.23;12.07;;;1.60;99.90;;;1.53;61.87;100668.03;5000336;28;20267;-68
2023/01/27 02:50:31;;;;;;;17.90;12.03;;;1.60;99.90;;;1.51;62.74;100667.97;4998488;28;20213;-68
2023/01/27 02:53:00;;;;;;;17.83;12.07;;;1.60;99.90;;;1.48;63.11;100664.47;4999645;28;20204;-67
2023/01/27 02:55:28;;;;;;;22.80;12.70;;;1.60;99.90;;;1.50;62.08;100668.78;4999016;28;20661;-68
2023/01/27 02:57:56;;;;;;;17.97;12.43;;;1.60;99.90;;;1.51;61.86;100667.97;4999213;28;20700;-67
2023/01/27 03:00:26;;;;;;;18.93;12.33;;;1.60;99.90;;;1.51;62.14;100667.09;4997356;28;20258;-67
2023/01/27 03:02:55;;;;;;;18.77;13.17;;;1.60;99.90;;;1.50;62.29;100666.22;5000087;28;20227;-69
2023/01/27 03:05:23;;;;;;;20.27;13.27;;;1.60;99.90;;;1.52;62.52;100666.31;4997449;28;20670;-70
2023/01/27 03:07:52;;;;;;;17.83;12.13;;;1.60;99.90;;;1.51;62.38;100667.09;4997579;28;20227;-70
2023/01/27 03:10:20;;;;;;;19.17;12.93;;;1.60;99.90;;;1.47;61.83;100670.34;4999080;28;20211;-69
2023/01/27 03:12:48;;;;;;;20.13;12.73;;;1.60;99.90;;;1.46;62.23;100669.47;4999273;28;20204;-68
2023/01/27 03:18:14;;;;;;;19.23;12.63;;;1.50;99.90;;;1.47;62.30;100668.66;4994091;28;20192;-71
2023/01/27 03:20:46;;;;;;;22.73;14.00;;;1.50;99.90;;;1.45;62.16;100673.69;4990141;28;20204;-70
2023/01/27 03:23:18;;;;;;;19.80;13.03;;;1.50;99.90;;;1.47;62.43;100672.88;4997832;28;20212;-68
2023/01/27 03:25:48;;;;;;;22.50;13.57;;;1.50;99.90;;;1.45;62.29;100671.16;4996823;28;20216;-68
2023/01/27 03:28:17;;;;;;;21.43;14.23;;;1.50;99.90;;;1.44;62.97;100669.44;4996862;28;20336;-67
2023/01/27 03:30:45;;;;;;;20.10;13.63;;;1.50;99.90;;;1.44;62.50;100666.03;4998546;28;20244;-69
2023/01/27 03:33:16;;;;;;;22.80;13.97;;;1.60;99.90;;;1.47;62.46;100670.34;4997466;28;20218;-68
2023/01/27 03:35:48;;;;;;;21.00;13.47;;;1.60;99.90;;;1.48;62.39;100672.94;4989620;28;20208;-68
2023/01/27 03:46:36;;;;;;;23.70;14.57;;;1.60;99.90;;;1.51;62.85;100677.25;4994496;28;20211;-68
2023/01/27 03:49:06;;;;;;;21.70;13.80;;;1.60;99.90;;;1.53;62.59;100681.59;4998520;28;20228;-70
2023/01/27 03:51:34;;;;;;;20.90;13.23;;;1.60;99.90;;;1.54;62.11;100669.75;4989519;28;20208;-69
2023/01/27 03:54:02;;;;;;;23.77;14.10;;;1.60;99.90;;;1.55;62.53;100679.97;4998114;28;20207;-70
2023/01/27 03:56:31;;;;;;;22.10;13.87;;;1.60;99.90;;;1.55;62.38;100677.44;4997312;28;20224;-70
2023/01/27 03:58:59;;;;;;;21.57;13.90;;;1.70;99.90;;;1.56;62.41;100680.84;4999291;28;20208;-68
2023/01/27 04:01:28;;;;;;;22.40;14.37;;;1.60;99.90;;;1.59;63.38;100675.88;4998096;28;20227;-69
2023/01/27 04:06:54;;;;;;;23.80;13.90;;;1.70;99.90;;;1.68;62.44;100691.41;4996253;28;20250;-68
2023/01/27 04:09:25;;;;;;;21.47;14.97;;;1.70;99.90;;;1.73;62.64;100689.91;4997470;28;20220;-70
2023/01/27 04:11:54;;;;;;;21.97;14.47;;;1.80;99.90;;;1.76;62.75;100684.03;4998729;28;20200;-69
2023/01/27 04:14:24;;;;;;;21.40;13.57;;;1.80;99.90;;;1.75;62.11;100692.50;4996336;28;20266;-69
2023/01/27 04:16:56;;;;;;;23.07;14.77;;;1.80;99.90;;;1.68;62.10;100687.19;4998650;28;20210;-67
2023/01/27 04:19:25;;;;;;;22.57;14.07;;;1.80;99.90;;;1.69;62.51;100690.59;4996969;28;20212;-69
2023/01/27 04:21:55;;;;;;;22.27;14.27;;;1.80;99.90;;;1.68;62.68;100697.34;4996667;28;20204;-68
2023/01/27 04:24:23;;;;;;;21.87;14.23;;;1.80;99.90;;;1.71;62.42;100695.75;4995396;28;20518;-70
2023/01/27 04:26:56;;;;;;;23.10;14.90;;;1.80;99.90;;;1.67;62.03;100695.63;4996523;28;20215;-69
2023/01/27 04:29:27;;;;;;;22.90;14.80;;;1.80;99.90;;;1.66;62.37;100704.06;4999048;28;20760;-68
2023/01/27 04:31:57;;;;;;;22.87;14.40;;;1.70;99.90;;;1.66;62.56;100693.91;4997776;28;20196;-68
2023/01/27 04:34:27;;;;;;;23.50;14.80;;;1.70;99.90;;;1.66;62.39;100695.59;4995036;28;20214;-69
2023/01/27 04:36:58;;;;;;;24.07;14.70;;;1.70;99.90;;;1.65;62.13;100697.25;4993282;28;20247;-68
2023/01/27 04:39:27;;;;;;;27.40;14.27;;;1.70;99.90;;;1.63;62.15;100693.78;4998739;28;20200;-69
2023/01/27 04:41:56;;;;;;;23.67;15.87;;;1.70;99.90;;;1.66;62.94;100693.06;4995895;28;20235;-68
2023/01/27 04:44:25;;;;;;;25.20;15.60;;;1.70;99.90;;;1.69;62.26;100695.66;4990226;28;20196;-68
2023/01/27 04:46:54;;;;;;;27.47;16.03;;;1.70;99.90;;;1.68;62.92;100691.41;4998595;28;20263;-68
2023/01/27 04:49:22;;;;;;;24.47;15.60;;;1.70;99.90;;;1.68;62.82;100691.41;4997563;28;20434;-69
2023/01/27 04:51:51;;;;;;;23.20;14.77;;;1.70;99.90;;;1.74;62.25;100704.34;4997610;28;20208;-69
2023/01/27 04:54:21;;;;;;;23.00;15.07;;;1.70;99.90;;;1.75;62.35;100703.50;4996943;28;20274;-68
2023/01/27 04:56:58;;;;;;;22.57;15.27;;;1.80;99.90;;;1.78;62.99;100705.31;4993792;28;20211;-67
2023/01/27 04:59:27;;;;;;;24.53;15.53;;;1.80;99.90;;;1.76;62.56;100705.22;5003048;28;20203;-69
2023/01/27 05:01:55;;;;;;;22.67;14.17;;;1.80;99.90;;;1.75;62.81;100712.81;4994293;28;20259;-69
2023/01/27 05:04:25;;;;;;;24.77;15.30;;;1.80;99.90;;;1.79;62.91;100717.19;5001268;28;20208;-69
2023/01/27 05:06:54;;;;;;;23.40;15.07;;;1.80;99.90;;;1.80;62.81;100717.22;4999754;28;20680;-70
2023/01/27 05:09:25;;;;;;;27.17;15.60;;;1.80;99.90;;;1.81;62.63;100713.03;4996149;28;20643;-69
2023/01/27 05:11:53;;;;;;;25.77;15.40;;;1.80;99.90;;;1.81;62.03;100713.91;5002325;28;20208;-69
2023/01/27 05:14:23;;;;;;;23.50;15.07;;;1.80;99.90;;;1.80;61.95;100717.22;5000637;28;20719;-69
2023/01/27 05:16:51;;;;;;;25.80;14.93;;;1.80;99.90;;;1.82;62.22;100723.25;4998153;28;20220;-69
2023/01/27 05:19:20;;;;;;;26.37;15.77;;;1.80;99.90;;;1.82;62.27;100720.69;4999776;28;20210;-70
2023/01/27 05:21:48;;;;;;;26.03;15.20;;;1.80;99.90;;;1.84;62.00;100720.75;5001031;28;20290;-69
2023/01/27 05:24:17;;;;;;;24.90;15.33;;;1.90;99.90;;;1.85;62.52;100728.44;4999693;28;20230;-70
2023/01/27 05:26:47;;;;;;;26.30;16.70;;;1.90;99.90;;;1.86;62.85;100724.22;4999656;28;20204;-68
2023/01/27 05:29:15;;;;;;;23.93;15.97;;;2.00;99.90;;;1.88;62.25;100735.31;5001115;28;20227;-69
2023/01/27 05:31:44;;;;;;;24.20;15.67;;;1.90;99.90;;;1.88;62.07;100732.75;4999669;28;20211;-68
2023/01/27 05:34:12;;;;;;;25.13;15.77;;;1.90;99.90;;;1.90;61.84;100731.13;5001607;28;20215;-69
2023/01/27 05:36:41;;;;;;;24.90;15.80;;;1.90;99.90;;;1.87;62.00;100725.94;4992369;28;20208;-68
2023/01/27 05:39:11;;;;;;;25.33;15.83;;;1.90;99.90;;;1.88;62.03;100736.16;4992936;28;20740;-69
2023/01/27 05:41:40;;;;;;;23.53;15.37;;;1.90;99.90;;;1.88;62.54;100741.25;4989796;28;20612;-66
2023/01/27 05:44:12;;;;;;;24.33;15.00;;;1.90;99.90;;;1.87;62.44;100742.03;4994992;28;20238;-68
2023/01/27 05:46:42;;;;;;;21.80;14.33;;;1.90;99.90;;;1.83;62.46;100736.81;4998551;28;20708;-69
2023/01/27 05:49:10;;;;;;;21.50;14.33;;;1.80;99.90;;;1.81;62.47;100734.22;5000750;28;20671;-70
2023/01/27 05:51:40;;;;;;;24.23;15.17;;;1.80;99.90;;;1.83;63.10;100737.66;4994252;28;20208;-68
2023/01/27 05:54:09;;;;;;;30.73;16.27;;;1.80;99.90;;;1.81;62.86;100736.75;4996877;28;20200;-70
2023/01/27 05:56:38;;;;;;;27.43;16.53;;;1.80;99.90;;;1.84;62.79;100744.50;4998561;28;20234;-67
2023/01/27 05:59:07;;;;;;;27.57;18.20;;;1.80;99.90;;;1.84;62.95;100744.50;5000718;28;20239;-68
2023/01/27 06:01:37;;;;;;;26.77;16.97;;;1.80;99.90;;;1.83;62.54;100745.28;4998508;28;20231;-69
2023/01/27 06:04:06;;;;;;;26.10;15.90;;;1.80;99.90;;;1.85;62.32;100745.34;4998906;28;20208;-70
2023/01/27 06:06:35;;;;;;;28.17;17.17;;;1.80;99.90;;;1.84;62.88;100754.66;4993756;28;20343;-69
2023/01/27 06:09:03;;;;;;;28.67;16.97;;;1.80;99.90;;;1.81;62.61;100752.00;4996686;28;20208;-69
2023/01/27 06:11:32;;;;;;;26.93;16.40;;;1.80;99.90;;;1.83;62.57;100758.00;4997985;28;20267;-69
2023/01/27 06:14:00;;;;;;;27.23;16.77;;;1.80;99.90;;;1.82;62.43;100756.28;4998472;28;20247;-73
2023/01/27 06:16:29;;;;;;;30.13;17.17;;;1.80;99.90;;;1.81;63.55;100757.09;4993999;28;20654;-69
2023/01/27 06:18:59;;;;;;;33.67;18.70;;;1.80;99.90;;;1.77;63.12;100762.88;4994974;28;20291;-68
2023/01/27 06:21:27;;;;;;;33.03;19.70;;;1.80;99.90;;;1.76;63.17;100771.28;4994678;28;20258;-71
2023/01/27 06:23:56;;;;;;;31.23;18.43;;;1.80;99.90;;;1.74;63.68;100772.94;4991725;28;21494;-69
2023/01/27 06:26:25;;;;;;;37.27;21.47;;;1.80;99.90;;;1.70;63.75;100778.72;4983286;28;20201;-72
2023/01/27 06:28:57;;;;;;;38.03;21.53;;;1.70;99.90;;;1.70;63.44;100778.72;4990681;28;20688;-70
2023/01/27 06:31:26;;;;;;;35.43;20.40;;;1.80;99.90;;;1.66;64.31;100785.34;4991856;28;20216;-69
2023/01/27 06:33:55;;;;;;;36.80;21.20;;;1.70;99.90;;;1.62;64.40;100778.44;4991707;28;20204;-69
2023/01/27 06:36:24;;;;;;;36.33;21.67;;;1.70;99.90;;;1.61;65.14;100780.91;4990608;28;20208;-67
2023/01/27 06:38:53;;;;;;;40.77;23.77;;;1.70;99.90;;;1.53;64.68;100787.38;4991029;28;20200;-70
2023/01/27 06:41:22;;;;;;;39.87;23.33;;;1.60;99.90;;;1.46;65.56;100786.28;4991952;28;20236;-70
2023/01/27 06:43:50;;;;;;;43.10;24.67;;;1.60;99.90;;;1.41;66.26;100793.75;4992105;28;20259;-70
2023/01/27 06:46:19;;;;;;;42.10;24.57;;;1.50;99.90;;;1.37;66.38;100791.91;4991474;28;20208;-72
2023/01/27 06:48:47;;;;;;;40.80;24.00;;;1.50;99.90;;;1.35;66.63;100802.78;4991336;28;20220;-70
2023/01/27 06:51:16;;;;;;;43.80;24.37;;;1.50;99.90;;;1.33;66.36;100797.66;4990536;28;20231;-69
2023/01/27 06:53:46;;;;;;;43.93;24.43;;;1.50;99.90;;;1.30;66.88;100794.16;4994864;28;20216;-70
2023/01/27 06:56:14;;;;;;;43.00;24.87;;;1.50;99.90;;;1.31;67.70;100795.88;4989354;28;20290;-70
2023/01/27 06:58:44;;;;;;;46.80;25.17;;;1.40;99.90;;;1.31;67.61;100803.50;4986532;28;20204;-69
2023/01/27 07:01:13;;;;;;;41.13;25.43;;;1.50;99.90;;;1.28;67.49;100803.38;4993043;28;20231;-67
2023/01/27 07:03:41;;;;;;;46.47;26.17;;;1.40;99.90;;;1.25;68.23;100796.50;4993557;28;20231;-67
2023/01/27 07:06:13;;;;;;;47.37;26.07;;;1.40;99.90;;;1.22;68.67;100798.06;4987822;28;20212;-70
2023/01/27 07:08:44;;;;;;;50.60;26.13;;;1.40;99.90;;;1.17;68.76;100802.94;4990689;28;20211;-65
2023/01/27 07:11:14;;;;;;;44.53;25.33;;;1.40;99.90;;;1.17;68.69;100808.03;4986323;28;20223;-67
2023/01/27 07:13:43;;;;;;;47.70;26.23;;;1.40;99.90;;;1.16;68.78;100807.16;4980522;28;20677;-68
2023/01/27 07:16:11;;;;;;;43.60;24.27;;;1.30;99.90;;;1.14;68.89;100805.38;4990613;28;20220;-69
2023/01/27 07:18:40;;;;;;;41.73;24.27;;;1.30;99.90;;;1.10;69.47;100801.84;4991949;28;20563;-70
2023/01/27 07:21:09;;;;;;;44.47;25.37;;;1.30;99.90;;;1.10;69.38;100803.53;4986883;28;20212;-67
2023/01/27 07:23:38;;;;;;;43.93;24.77;;;1.30;99.90;;;1.09;68.70;100807.72;4990765;28;20653;-68
2023/01/27 07:26:07;;;;;;;46.60;25.03;;;1.30;99.90;;;1.11;68.99;100805.28;4989868;28;20224;-68
2023/01/27 07:28:53;;;;;;;43.20;25.00;;;1.30;99.90;;;1.16;69.14;100817.31;4991154;28;20204;-69
2023/01/27 07:31:21;;;;;;;43.57;23.53;;;1.40;99.90;;;1.22;68.21;100809.09;4990203;28;20227;-69
2023/01/27 07:33:50;;;;;;;45.27;22.63;;;1.40;99.90;;;1.29;67.89;100812.72;4991583;28;20594;-68
2023/01/27 07:36:19;;;;;;;44.43;23.70;;;1.50;99.90;;;1.34;68.37;100806.16;4986619;28;20208;-70
2023/01/27 07:38:50;;;;;;;39.20;22.77;;;1.50;99.90;;;1.37;68.05;100802.06;4988236;28;20231;-69
2023/01/27 07:41:21;;;;;;;41.77;22.43;;;1.60;99.90;;;1.44;67.13;100808.22;4988649;28;20251;-70
2023/01/27 07:43:51;;;;;;;43.03;24.07;;;1.70;99.90;;;1.45;67.45;100808.28;4991370;28;20210;-69
2023/01/27 07:46:20;;;;;;;38.03;22.37;;;1.70;99.90;;;1.45;67.16;100802.34;4991016;28;20216;-71
2023/01/27 07:48:49;;;;;;;38.87;23.03;;;1.70;99.90;;;1.47;66.57;100807.47;4990965;28;20208;-69
2023/01/27 07:51:17;;;;;;;37.70;21.80;;;1.70;99.90;;;1.44;66.89;100814.16;4984830;28;20236;-69
2023/01/27 07:53:46;;;;;;;38.87;21.73;;;1.70;99.90;;;1.46;66.58;100806.59;4975033;28;20205;-70
2023/01/27 07:56:14;;;;;;;36.83;19.60;;;1.70;99.90;;;1.50;66.45;100812.66;4973610;28;20209;-68
2023/01/27 07:58:43;;;;;;;33.47;20.67;;;1.70;99.90;;;1.51;65.94;100809.31;4973374;28;20745;-71
2023/01/27 08:01:13;;;;;;;35.20;20.60;;;1.80;99.90;;;1.57;66.51;100809.53;4973885;28;20255;-67
2023/01/27 08:03:42;;;;;;;35.70;21.13;;;1.80;99.90;;;1.65;66.44;100808.13;4985527;28;20216;-66
2023/01/27 08:06:12;;;;;;;35.83;21.43;;;1.90;99.90;;;1.76;66.60;100806.84;4992810;28;20271;-67
2023/01/27 08:08:41;;;;;;;36.50;20.47;;;2.00;99.90;;;1.82;65.78;100811.31;4981525;28;20748;-69
2023/01/27 08:11:13;;;;;;;34.47;18.50;;;2.00;99.90;;;1.84;65.08;100812.22;4983367;28;20234;-67
2023/01/27 08:13:42;;;;;;;30.80;18.90;;;2.10;99.90;;;1.84;64.89;100814.75;4988520;28;20624;-65
2023/01/27 08:16:15;;;;;;;29.10;18.00;;;2.10;99.90;;;1.85;63.90;100807.19;4987211;28;20695;-67
2023/01/27 08:18:43;;;;;;;30.17;17.43;;;2.10;99.90;;;1.86;64.56;100803.84;4988811;28;20500;-66
2023/01/27 08:21:13;;;;;;;25.50;15.97;;;2.10;99.90;;;1.90;63.86;100810.75;4981013;28;20244;-64
2023/01/27 08:23:41;;;;;;;26.93;16.13;;;2.20;99.90;;;1.98;63.16;100820.34;4980129;28;20278;-64
2023/01/27 08:26:10;;;;;;;26.73;14.73;;;2.30;99.90;;;2.04;62.58;100818.03;4984413;28;20833;-66
2023/01/27 08:28:40;;;;;;;24.50;14.50;;;2.30;99.90;;;2.05;62.78;100824.81;4987848;28;20212;-67
2023/01/27 08:31:12;;;;;;;23.97;14.07;;;2.30;99.90;;;2.12;62.60;100824.22;4983735;28;20216;-64
2023/01/27 08:33:44;;;;;;;24.50;14.63;;;2.40;99.90;;;2.23;62.42;100817.84;4982274;28;20570;-65
2023/01/27 08:36:15;;;;;;;30.83;15.70;;;2.50;99.90;;;2.31;62.24;100824.03;4987439;28;20231;-61
2023/01/27 08:38:45;;;;;;;25.53;15.10;;;2.60;99.90;;;2.40;61.90;100824.38;4988555;28;20262;-66
2023/01/27 08:41:17;;;;;;;24.60;14.93;;;2.70;99.90;;;2.50;61.36;100824.66;4993331;28;20298;-66
2023/01/27 08:43:46;;;;;;;25.20;15.50;;;2.80;99.90;;;2.52;61.16;100823.91;4986236;28;20219;-66
2023/01/27 08:46:16;;;;;;;25.13;15.73;;;2.80;99.90;;;2.55;60.19;100824.03;4992151;28;20204;-65
2023/01/27 08:48:46;;;;;;;24.93;14.43;;;2.90;99.90;;;2.58;60.16;100826.69;4988783;28;20649;-65
2023/01/27 08:51:15;;;;;;;27.73;15.97;;;2.90;99.90;;;2.61;60.92;100830.97;4989782;28;20243;-63
2023/01/27 08:53:43;;;;;;;27.27;16.13;;;2.90;99.90;;;2.64;60.87;100831.09;4988184;28;20218;-67
2023/01/27 08:56:14;;;;;;;26.13;15.63;;;3.00;99.90;;;2.71;60.02;100829.63;4987684;28;20241;-65
2023/01/27 08:58:44;;;;;;;20.27;14.13;;;3.00;99.90;;;2.69;59.98;100841.41;4988750;28;20239;-65
2023/01/27 09:01:13;;;;;;;28.83;17.00;;;3.00;99.90;;;2.68;60.06;100835.47;4986856;28;20220;-65
2023/01/27 09:03:42;;;;;;;25.83;15.97;;;3.00;99.90;;;2.66;59.79;100842.19;4989016;28;20207;-67
2023/01/27 09:06:14;;;;;;;27.43;16.37;;;3.00;99.90;;;2.62;60.77;100838.69;4981212;28;20212;-66
2023/01/27 09:08:43;;;;;;;30.33;17.37;;;2.90;99.90;;;2.66;59.95;100844.72;4990907;28;20233;-65
2023/01/27 09:11:15;;;;;;;27.40;17.63;;;2.90;99.90;;;2.63;59.71;100842.09;4988478;28;20228;-66
2023/01/27 09:13:44;;;;;;;25.17;16.90;;;2.90;99.90;;;2.60;59.90;100842.84;4990399;28;20706;-64
2023/01/27 09:16:12;;;;;;;28.77;17.50;;;2.90;99.90;;;2.63;59.77;100837.00;4980228;28;20208;-65
2023/01/27 09:18:41;;;;;;;26.53;16.63;;;2.90;99.90;;;2.70;60.50;100845.69;4992414;28;20291;-67
2023/01/27 09:21:12;;;;;;;34.47;19.13;;;3.00;99.90;;;2.79;60.48;100846.00;4991040;28;20204;-66
2023/01/27 09:23:40;;;;;;;27.37;15.53;;;3.00;99.90;;;2.89;59.92;100833.63;4992598;28;20215;-63
2023/01/27 09:26:08;;;;;;;27.23;15.53;;;3.20;99.90;;;3.08;58.91;100835.06;4987272;28;20243;-66
2023/01/27 09:28:37;;;;;;;23.77;14.73;;;3.40;99.90;;;3.35;59.10;100836.72;4980675;28;20205;-66
2023/01/27 09:31:08;;;;;;;22.40;15.07;;;3.60;99.90;;;3.66;58.09;100843.59;4987719;28;20821;-64
2023/01/27 09:33:38;;;;;;;26.93;14.30;;;3.90;99.90;;;4.04;57.16;100831.06;4990819;28;20299;-67
2023/01/27 09:36:11;;;;;;;20.67;12.43;;;4.20;99.90;;;4.20;55.71;100823.03;4992072;28;20211;-65
2023/01/27 09:38:45;;;;;;;20.97;13.40;;;4.40;99.90;;;4.38;55.53;100827.72;4991972;28;20615;-67
2023/01/27 09:41:47;;;;;;;25.47;14.80;;;4.60;99.90;;;4.75;54.20;100829.56;4990861;28;20235;-66
2023/01/27 09:44:57;;;;;;;22.10;14.47;;;4.90;99.90;;;5.45;53.21;100824.31;4981576;28;20211;-64
2023/01/27 09:47:52;;;;;;;21.30;14.13;;;5.60;99.90;;;6.17;51.99;100823.28;4985083;28;20243;-67
2023/01/27 09:50:45;;;;;;;23.20;14.93;;;6.30;99.90;;;7.09;49.62;100824.84;4991048;28;20714;-67
2023/01/27 09:53:54;;;;;;;23.77;15.87;;;7.20;99.90;;;7.44;48.00;100825.34;4985020;28;20216;-66
2023/01/27 09:56:41;;;;;;;18.07;12.70;;;7.50;99.90;;;7.53;46.68;100820.34;4989626;28;20239;-69
2023/01/27 09:59:27;;;;;;;19.73;12.53;;;7.70;99.90;;;7.16;45.49;100822.38;4986440;28;20215;-66
2023/01/27 10:02:10;;;;;;;21.87;13.63;;;7.30;99.90;;;6.77;45.96;100827.75;4990256;28;20227;-66
2023/01/27 10:05:20;;;;;;;26.60;15.20;;;7.00;99.90;;;6.30;47.44;100820.13;4992494;28;20591;-64
2023/01/27 10:08:19;;;;;;;23.87;15.13;;;6.50;99.90;;;5.85;48.44;100825.16;4975288;28;20212;-67
2023/01/27 10:11:05;;;;;;;27.37;17.00;;;6.10;99.90;;;5.50;49.04;100823.59;4982096;28;20244;-67
2023/01/27 10:13:48;;;;;;;29.07;17.33;;;5.80;99.90;;;5.36;50.51;100826.69;4991589;28;20356;-67
2023/01/27 10:16:36;;;;;;;28.30;18.33;;;5.60;99.90;;;5.19;50.84;100821.19;4982383;28;20231;-65
2023/01/27 10:19:28;;;;;;;28.53;17.27;;;5.40;99.90;;;5.04;52.02;100827.69;4989891;28;20227;-66
2023/01/27 10:22:12;;;;;;;26.80;16.17;;;5.30;99.90;;;4.81;51.77;100834.78;4987320;28;20204;-66
2023/01/27 10:24:59;;;;;;;26.90;16.93;;;5.00;99.90;;;4.49;52.33;100836.56;4990640;28;20219;-66
2023/01/27 10:27:35;;;;;;;29.30;15.73;;;4.70;99.90;;;4.22;52.78;100848.56;4978613;28;20665;-69
2023/01/27 10:30:15;;;;;;;29.50;18.83;;;4.50;99.90;;;4.04;53.90;100843.81;4988304;28;20212;-68
2023/01/27 10:32:50;;;;;;;25.77;16.10;;;4.30;99.90;;;3.96;53.87;100845.31;4990702;28;20219;-67
2023/01/27 10:35:24;;;;;;;27.20;16.07;;;4.20;99.90;;;3.76;54.50;100853.25;4988895;28;20209;-67
2023/01/27 10:38:06;;;;;;;27.93;16.03;;;4.00;99.90;;;3.60;55.01;100849.38;4985004;28;20204;-64
2023/01/27 10:40:47;;;;;;;25.50;15.93;;;3.80;99.90;;;3.50;55.82;100856.69;4989061;28;20234;-65
2023/01/27 10:43:24;;;;;;;24.70;15.63;;;3.70;99.90;;;3.38;55.79;100868.25;4989815;28;20199;-65
2023/01/27 10:46:04;;;;;;;26.17;16.37;;;3.60;99.90;;;3.31;55.91;100860.38;4987840;28;20290;-64
2023/01/27 10:48:42;;;;;;;25.00;16.13;;;3.50;99.90;;;3.26;56.84;100864.47;4990580;28;20207;-66
2023/01/27 10:51:16;;;;;;;29.00;16.80;;;3.50;99.90;;;3.20;56.94;100859.16;4984778;28;20204;-64
2023/01/27 10:53:57;;;;;;;29.50;18.17;;;3.40;99.90;;;3.20;56.97;100865.13;4990093;28;20242;-68
2023/01/27 10:56:35;;;;;;;31.30;19.30;;;3.40;99.90;;;3.13;57.73;100866.66;4987802;28;20677;-64